createdAt,value
2018-04-10T00:41:19.595Z,7.99
2018-04-10T00:42:19.509Z,7.91
2018-04-10T00:43:19.425Z,7.86
2018-04-10T00:44:19.359Z,7.94
2018-04-10T00:45:19.271Z,7.94
2018-04-10T00:46:19.206Z,7.97
2018-04-10T00:47:19.117Z,8.00
2018-04-10T00:48:19.052Z,8.00
2018-04-10T00:49:18.965Z,8.04
2018-04-10T00:50:18.897Z,8.12
2018-04-10T00:51:18.814Z,8.11
2018-04-10T00:52:18.739Z,8.17
2018-04-10T00:53:18.649Z,8.12
2018-04-10T00:54:18.592Z,8.15
2018-04-10T00:55:18.507Z,8.22
2018-04-10T00:56:18.431Z,8.21
2018-04-10T00:57:18.350Z,8.21
2018-04-10T00:58:18.279Z,8.21
2018-04-10T00:59:18.196Z,8.25
2018-04-10T01:00:18.128Z,8.25
2018-04-10T01:01:18.050Z,8.25
2018-04-10T01:02:17.984Z,8.29
2018-04-10T01:03:17.886Z,8.29
2018-04-10T01:04:17.823Z,8.25
2018-04-10T01:05:17.734Z,8.29
2018-04-10T01:06:17.667Z,8.29
2018-04-10T01:07:17.581Z,8.27
2018-04-10T01:08:17.514Z,8.25
2018-04-10T01:09:17.428Z,8.24
2018-04-10T01:10:17.358Z,8.12
2018-04-10T01:11:17.272Z,8.22
2018-04-10T01:12:17.205Z,8.11
2018-04-10T01:13:17.127Z,8.19
2018-04-10T01:14:17.046Z,8.22
2018-04-10T01:15:16.968Z,8.12
2018-04-10T01:16:16.898Z,8.14
2018-04-10T01:17:16.812Z,8.15
2018-04-10T01:18:16.752Z,8.12
2018-04-10T01:19:16.658Z,8.09
2018-04-10T01:20:16.591Z,8.03
2018-04-10T01:21:16.506Z,8.00
2018-04-10T01:22:16.436Z,7.99
2018-04-10T01:23:16.350Z,7.90
2018-04-10T01:24:16.279Z,8.00
2018-04-10T01:25:16.195Z,7.90
2018-04-10T01:26:16.130Z,7.90
2018-04-10T01:27:16.048Z,7.93
2018-04-10T01:28:15.974Z,7.83
2018-04-10T01:29:15.895Z,7.78
2018-04-10T01:30:15.821Z,7.76
2018-04-10T01:31:15.735Z,7.67
2018-04-10T01:32:15.667Z,7.53
2018-04-10T01:33:15.584Z,7.52
2018-04-10T01:34:15.504Z,7.37
2018-04-10T01:35:15.437Z,7.38
2018-04-10T01:36:15.353Z,7.24
2018-04-10T01:37:15.282Z,7.29
2018-04-10T01:38:15.196Z,7.26
2018-04-10T01:39:15.128Z,7.19
2018-04-10T01:40:15.043Z,7.29
2018-04-10T01:41:14.973Z,7.19
2018-04-10T01:42:14.894Z,7.23
2018-04-10T01:43:14.820Z,7.24
2018-04-10T01:44:14.734Z,7.21
2018-04-10T01:45:14.689Z,7.35
2018-04-10T01:46:14.580Z,7.31
2018-04-10T01:47:14.510Z,7.30
2018-04-10T01:48:14.425Z,7.30
2018-04-10T01:49:14.359Z,7.37
2018-04-10T01:50:14.272Z,7.38
2018-04-10T01:51:14.202Z,7.39
2018-04-10T01:52:14.117Z,7.41
2018-04-10T01:53:14.049Z,7.37
2018-04-10T01:54:13.977Z,7.35
2018-04-10T01:55:13.896Z,7.39
2018-04-10T01:56:13.807Z,7.34
2018-04-10T01:57:13.741Z,7.37
2018-04-10T01:58:13.654Z,7.35
2018-04-10T01:59:13.588Z,7.35
2018-04-10T02:00:13.502Z,7.26
2018-04-10T02:01:13.429Z,7.29
2018-04-10T02:02:13.349Z,7.31
2018-04-10T02:03:13.281Z,7.23
2018-04-10T02:04:13.195Z,7.26
2018-04-10T02:05:13.124Z,7.27
2018-04-10T02:06:13.037Z,7.27
2018-04-10T02:07:12.967Z,7.20
2018-04-10T02:08:12.884Z,7.29
2018-04-10T02:09:12.815Z,7.19
2018-04-10T02:10:12.727Z,7.29
2018-04-10T02:11:12.659Z,7.27
2018-04-10T02:12:12.576Z,7.29
2018-04-10T02:13:12.503Z,7.29
2018-04-10T02:14:12.421Z,7.27
2018-04-10T02:15:12.352Z,7.34
2018-04-10T02:16:12.265Z,7.29
2018-04-10T02:17:12.195Z,7.29
2018-04-10T02:18:12.109Z,7.24
2018-04-10T02:19:12.041Z,7.27
2018-04-10T02:20:11.957Z,7.23
2018-04-10T02:21:11.884Z,7.08
2018-04-10T02:22:11.804Z,6.96
2018-04-10T02:23:11.731Z,6.99
2018-04-10T02:24:11.644Z,7.09
2018-04-10T02:25:11.578Z,7.12
2018-04-10T02:26:11.519Z,7.12
2018-04-10T02:27:11.421Z,7.20
2018-04-10T02:28:11.337Z,7.11
2018-04-10T02:29:11.267Z,7.21
2018-04-10T02:30:11.181Z,7.19
2018-04-10T02:31:11.114Z,7.20
2018-04-10T02:32:11.025Z,7.12
2018-04-10T02:33:10.958Z,7.19
2018-04-10T02:34:10.873Z,7.16
2018-04-10T02:35:10.803Z,7.20
2018-04-10T02:36:10.718Z,7.19
2018-04-10T02:37:10.672Z,7.06
2018-04-10T02:38:10.565Z,7.01
2018-04-10T02:39:10.499Z,6.99
2018-04-10T02:40:10.410Z,6.93
2018-04-10T02:41:10.341Z,6.87
2018-04-10T02:42:10.250Z,6.93
2018-04-10T02:43:10.186Z,6.90
2018-04-10T02:44:10.100Z,6.93
2018-04-10T02:45:10.026Z,6.83
2018-04-10T02:46:09.942Z,6.84
2018-04-10T02:47:09.875Z,6.86
2018-04-10T02:48:09.790Z,6.87
2018-04-10T02:49:09.717Z,6.81
2018-04-10T02:50:09.635Z,6.84
2018-04-10T02:51:09.566Z,6.87
2018-04-10T02:52:09.475Z,6.80
2018-04-10T02:53:09.409Z,6.87
2018-04-10T02:54:09.321Z,6.78
2018-04-10T02:55:09.251Z,6.91
2018-04-10T02:56:09.170Z,6.90
2018-04-10T02:57:09.101Z,6.93
2018-04-10T02:58:09.016Z,6.87
2018-04-10T02:59:08.944Z,6.93
2018-04-10T03:00:08.855Z,6.84
2018-04-10T03:01:08.786Z,6.80
2018-04-10T03:02:08.703Z,6.83
2018-04-10T03:03:08.642Z,6.83
2018-04-10T03:04:08.545Z,6.80
2018-04-10T03:05:08.476Z,6.86
2018-04-10T03:06:08.394Z,6.78
2018-04-10T03:07:08.324Z,6.86
2018-04-10T03:08:08.237Z,6.83
2018-04-10T03:09:08.167Z,6.81
2018-04-10T03:10:08.079Z,6.73
2018-04-10T03:11:08.015Z,6.69
2018-04-10T03:12:07.924Z,6.63
2018-04-10T03:13:07.856Z,6.73
2018-04-10T03:14:07.768Z,6.66
2018-04-10T03:15:07.702Z,6.62
2018-04-10T03:16:07.616Z,6.63
2018-04-10T03:17:07.548Z,6.65
2018-04-10T03:18:07.457Z,6.60
2018-04-10T03:19:07.391Z,6.60
2018-04-10T03:20:07.305Z,6.68
2018-04-10T03:21:07.236Z,6.63
2018-04-10T03:22:07.150Z,6.66
2018-04-10T03:23:07.080Z,6.62
2018-04-10T03:24:06.991Z,6.55
2018-04-10T03:25:06.923Z,6.60
2018-04-10T03:26:06.838Z,6.60
2018-04-10T03:27:06.769Z,6.63
2018-04-10T03:28:06.683Z,6.62
2018-04-10T03:29:06.612Z,6.66
2018-04-10T03:30:06.528Z,6.68
2018-04-10T03:31:06.457Z,6.69
2018-04-10T03:32:06.371Z,6.65
2018-04-10T03:33:06.301Z,6.62
2018-04-10T03:34:06.220Z,6.68
2018-04-10T03:35:06.144Z,6.62
2018-04-10T03:36:06.060Z,6.63
2018-04-10T03:37:05.993Z,6.66
2018-04-10T03:38:05.903Z,6.75
2018-04-10T03:39:05.837Z,6.70
2018-04-10T03:40:05.752Z,6.72
2018-04-10T03:41:05.680Z,6.72
2018-04-10T03:42:05.592Z,6.66
2018-04-10T03:43:05.525Z,6.69
2018-04-10T03:44:05.435Z,6.78
2018-04-10T03:45:05.368Z,6.70
2018-04-10T03:46:05.284Z,6.72
2018-04-10T03:47:05.213Z,6.84
2018-04-10T03:48:05.137Z,6.88
2018-04-10T03:49:05.056Z,6.80
2018-04-10T03:50:04.975Z,6.75
2018-04-10T03:51:04.901Z,6.69
2018-04-10T03:52:04.821Z,6.69
2018-04-10T03:53:04.745Z,6.69
2018-04-10T03:54:04.662Z,6.76
2018-04-10T03:55:04.590Z,6.75
2018-04-10T03:56:04.505Z,6.69
2018-04-10T03:57:04.436Z,6.76
2018-04-10T03:58:04.359Z,6.65
2018-04-10T03:59:04.291Z,6.69
2018-04-10T04:00:04.191Z,6.69
2018-04-10T04:01:04.128Z,6.62
2018-04-10T04:02:04.038Z,6.62
2018-04-10T04:03:03.970Z,6.55
2018-04-10T04:04:03.882Z,6.63
2018-04-10T04:05:03.812Z,6.57
2018-04-10T04:06:03.724Z,6.54
2018-04-10T04:07:03.658Z,6.63
2018-04-10T04:08:03.572Z,6.54
2018-04-10T04:09:03.498Z,6.52
2018-04-10T04:10:03.415Z,6.60
2018-04-10T04:11:03.352Z,6.68
2018-04-10T04:12:03.263Z,6.60
2018-04-10T04:13:03.197Z,6.65
2018-04-10T04:14:03.112Z,6.60
2018-04-10T04:15:03.030Z,6.62
2018-04-10T04:16:02.958Z,6.63
2018-04-10T04:17:02.874Z,6.63
2018-04-10T04:18:02.790Z,6.63
2018-04-10T04:19:02.724Z,6.65
2018-04-10T04:20:02.639Z,6.66
2018-04-10T04:21:02.566Z,6.62
2018-04-10T04:22:02.482Z,6.69
2018-04-10T04:23:02.411Z,6.70
2018-04-10T04:24:02.327Z,6.65
2018-04-10T04:25:02.253Z,6.59
2018-04-10T04:26:02.193Z,6.62
2018-04-10T04:27:02.101Z,6.50
2018-04-10T04:28:02.017Z,6.48
2018-04-10T04:29:01.943Z,6.34
2018-04-10T04:30:01.856Z,6.34
2018-04-10T04:31:01.788Z,6.34
2018-04-10T04:32:01.722Z,6.18
2018-04-10T04:33:01.630Z,6.21
2018-04-10T04:34:01.548Z,6.26
2018-04-10T04:35:01.473Z,6.17
2018-04-10T04:36:01.392Z,6.04
2018-04-10T04:37:01.324Z,6.14
2018-04-10T04:38:01.230Z,6.08
2018-04-10T04:39:01.160Z,6.15
2018-04-10T04:40:01.077Z,6.24
2018-04-10T04:41:01.005Z,6.24
2018-04-10T04:42:00.921Z,6.26
2018-04-10T04:43:00.848Z,6.29
2018-04-10T04:44:00.763Z,6.39
2018-04-10T04:45:00.694Z,6.29
2018-04-10T04:46:00.615Z,6.22
2018-04-10T04:47:00.535Z,6.22
2018-04-10T04:48:00.452Z,6.15
2018-04-10T04:49:00.381Z,6.17
2018-04-10T04:50:00.297Z,6.11
2018-04-10T04:51:00.237Z,6.18
2018-04-10T04:52:00.137Z,6.03
2018-04-10T04:53:00.179Z,6.06
2018-04-10T04:53:59.984Z,6.07
2018-04-10T04:54:59.985Z,6.03
2018-04-10T04:55:59.827Z,6.04
2018-04-10T04:56:59.794Z,6.08
2018-04-10T04:57:59.671Z,6.00
2018-04-10T04:58:59.704Z,6.04
2018-04-10T04:59:59.514Z,6.07
2018-04-10T05:00:59.542Z,6.04
2018-04-10T05:01:59.364Z,6.03
2018-04-10T05:02:59.327Z,6.07
2018-04-10T05:03:59.201Z,6.06
2018-04-10T05:04:59.232Z,6.06
2018-04-10T05:05:59.047Z,6.08
2018-04-10T05:06:59.042Z,6.13
2018-04-10T05:07:58.898Z,6.06
2018-04-10T05:08:58.818Z,6.11
2018-04-10T05:09:58.732Z,6.10
2018-04-10T05:10:58.759Z,6.08
2018-04-10T05:11:58.577Z,6.08
2018-04-10T05:12:58.570Z,6.13
2018-04-10T05:13:58.419Z,6.18
2018-04-10T05:14:58.374Z,6.17
2018-04-10T05:15:58.264Z,6.17
2018-04-10T05:16:58.286Z,6.26
2018-04-10T05:17:58.104Z,6.26
2018-04-10T05:18:58.028Z,6.21
2018-04-10T05:19:57.961Z,6.26
2018-04-10T05:20:57.870Z,6.24
2018-04-10T05:21:57.904Z,6.26
2018-04-10T05:22:57.743Z,6.30
2018-04-10T05:23:57.712Z,6.34
2018-04-10T05:24:57.561Z,6.30
2018-04-10T05:25:57.521Z,6.33
2018-04-10T05:26:57.401Z,6.36
2018-04-10T05:27:57.325Z,6.42
2018-04-10T05:28:57.337Z,6.39
2018-04-10T05:29:57.189Z,6.41
2018-04-10T05:30:57.101Z,6.41
2018-04-10T05:31:57.011Z,6.47
2018-04-10T05:32:56.943Z,6.47
2018-04-10T05:33:56.857Z,6.47
2018-04-10T05:34:56.785Z,6.41
2018-04-10T05:35:56.699Z,6.37
2018-04-10T05:36:56.632Z,6.37
2018-04-10T05:37:56.542Z,6.47
2018-04-10T05:38:56.473Z,6.36
2018-04-10T05:39:56.388Z,6.37
2018-04-10T05:40:56.319Z,6.42
2018-04-10T05:41:56.232Z,6.34
2018-04-10T05:42:56.205Z,6.42
2018-04-10T05:43:56.074Z,6.39
2018-04-10T05:44:56.116Z,6.47
2018-04-10T05:45:55.922Z,6.50
2018-04-10T05:46:55.928Z,6.48
2018-04-10T05:47:55.765Z,6.52
2018-04-10T05:48:55.739Z,6.57
2018-04-10T05:49:55.606Z,6.62
2018-04-10T05:50:55.641Z,6.63
2018-04-10T05:51:55.454Z,6.68
2018-04-10T05:52:55.461Z,6.65
2018-04-10T05:53:55.296Z,6.65
2018-04-10T05:54:55.263Z,6.70
2018-04-10T05:55:55.135Z,6.68
2018-04-10T05:56:55.175Z,6.72
2018-04-10T05:57:54.982Z,6.80
2018-04-10T05:58:54.911Z,6.81
2018-04-10T05:59:54.827Z,6.76
2018-04-10T06:00:54.792Z,6.88
2018-04-10T06:01:54.667Z,6.93
2018-04-10T06:02:54.701Z,6.99
2018-04-10T06:03:54.513Z,7.01
2018-04-10T06:04:54.517Z,6.98
2018-04-10T06:05:54.357Z,7.05
2018-04-10T06:06:54.319Z,7.09
2018-04-10T06:07:54.200Z,7.06
2018-04-10T06:08:54.234Z,7.19
2018-04-10T06:09:54.075Z,7.17
2018-04-10T06:10:55.066Z,7.16
2018-04-10T06:11:53.892Z,7.24
2018-04-10T06:12:53.850Z,7.26
2018-04-10T06:13:53.736Z,7.23
2018-04-10T06:14:53.763Z,7.31
2018-04-10T06:15:53.573Z,7.38
2018-04-10T06:16:53.573Z,7.37
2018-04-10T06:17:53.420Z,7.44
2018-04-10T06:18:53.379Z,7.44
2018-04-10T06:19:53.267Z,7.55
2018-04-10T06:20:53.291Z,7.59
2018-04-10T06:21:53.113Z,7.56
2018-04-10T06:22:53.101Z,7.64
2018-04-10T06:23:52.960Z,7.72
2018-04-10T06:24:52.909Z,7.83
2018-04-10T06:25:52.801Z,7.93
2018-04-10T06:26:52.822Z,7.96
2018-04-10T06:27:52.646Z,8.04
2018-04-10T06:28:52.632Z,8.17
2018-04-10T06:29:52.492Z,8.07
2018-04-10T06:30:52.441Z,8.25
2018-04-10T06:31:52.339Z,8.27
2018-04-10T06:32:52.353Z,8.27
2018-04-10T06:33:52.180Z,8.30
2018-04-10T06:34:52.108Z,8.32
2018-04-10T06:35:52.027Z,8.40
2018-04-10T06:36:51.968Z,8.37
2018-04-10T06:37:51.872Z,8.43
2018-04-10T06:38:52.908Z,8.52
2018-04-10T06:39:51.721Z,8.58
2018-04-10T06:40:51.694Z,8.66
2018-04-10T06:41:51.561Z,8.66
2018-04-10T06:42:51.602Z,8.73
2018-04-10T06:43:51.408Z,8.76
2018-04-10T06:44:51.410Z,8.76
2018-04-10T06:45:51.249Z,8.85
2018-04-10T06:46:51.220Z,8.98
2018-04-10T06:47:51.098Z,8.95
2018-04-10T06:48:51.126Z,9.00
2018-04-10T06:49:50.947Z,9.03
2018-04-10T06:50:50.937Z,9.14
2018-04-10T06:51:50.788Z,9.24
2018-04-10T06:52:50.751Z,9.34
2018-04-10T06:53:50.635Z,9.43
2018-04-10T06:54:50.662Z,9.52
2018-04-10T06:55:50.480Z,9.68
2018-04-10T06:56:50.410Z,9.78
2018-04-10T06:57:50.331Z,9.74
2018-04-10T06:58:50.281Z,9.89
2018-04-10T06:59:50.174Z,9.96
2018-04-10T07:00:50.185Z,10.11
2018-04-10T07:01:50.021Z,10.11
2018-04-10T07:02:50.000Z,10.13
2018-04-10T07:03:49.865Z,10.23
2018-04-10T07:04:49.907Z,10.37
2018-04-10T07:05:49.711Z,10.43
2018-04-10T07:06:49.725Z,10.56
2018-04-10T07:07:49.555Z,10.59
2018-04-10T07:08:49.535Z,10.77
2018-04-10T07:09:49.406Z,10.75
2018-04-10T07:10:49.444Z,10.84
2018-04-10T07:11:49.251Z,10.91
2018-04-10T07:12:49.247Z,11.00
2018-04-10T07:13:49.099Z,10.99
2018-04-10T07:14:49.064Z,11.17
2018-04-10T07:15:48.944Z,11.32
2018-04-10T07:16:48.987Z,11.43
2018-04-10T07:17:48.794Z,11.51
2018-04-10T07:18:48.725Z,11.57
2018-04-10T07:19:48.648Z,11.69
2018-04-10T07:20:48.593Z,11.81
2018-04-10T07:21:48.488Z,11.89
2018-04-10T07:22:48.501Z,12.02
2018-04-10T07:23:48.334Z,12.00
2018-04-10T07:24:48.308Z,12.19
2018-04-10T07:25:48.185Z,12.30
2018-04-10T07:26:48.218Z,12.36
2018-04-10T07:27:48.052Z,12.44
2018-04-10T07:28:48.029Z,12.60
2018-04-10T07:29:47.879Z,12.60
2018-04-10T07:30:47.840Z,12.73
2018-04-10T07:31:47.734Z,12.89
2018-04-10T07:32:47.751Z,13.02
2018-04-10T07:33:47.576Z,13.19
2018-04-10T07:34:47.558Z,13.33
2018-04-10T07:35:47.425Z,13.44
2018-04-10T07:36:47.472Z,13.53
2018-04-10T07:37:47.281Z,13.62
2018-04-10T07:38:47.281Z,13.71
2018-04-10T07:39:47.175Z,13.76
2018-04-10T07:40:47.090Z,13.99
2018-04-10T07:41:46.971Z,13.98
2018-04-10T07:42:46.999Z,14.10
2018-04-10T07:43:46.824Z,14.29
2018-04-10T07:44:46.811Z,14.28
2018-04-10T07:45:46.676Z,14.31
2018-04-10T07:46:46.722Z,14.49
2018-04-10T07:47:46.525Z,14.42
2018-04-10T07:48:46.528Z,14.49
2018-04-10T07:49:46.375Z,14.61
2018-04-10T07:50:46.342Z,14.84
2018-04-10T07:51:46.232Z,14.88
2018-04-10T07:52:46.251Z,14.90
2018-04-10T07:53:46.079Z,15.03
2018-04-10T07:54:46.159Z,15.15
2018-04-10T07:55:45.930Z,15.18
2018-04-10T07:56:45.969Z,15.26
2018-04-10T07:57:45.782Z,15.41
2018-04-10T07:58:45.729Z,15.52
2018-04-10T07:59:45.631Z,15.51
2018-04-10T08:00:45.684Z,15.51
2018-04-10T08:01:45.487Z,15.67
2018-04-10T08:02:45.448Z,15.82
2018-04-10T08:03:45.332Z,15.79
2018-04-10T08:04:45.360Z,15.89
2018-04-10T08:05:45.188Z,16.03
2018-04-10T08:06:45.168Z,16.10
2018-04-10T08:07:45.042Z,16.20
2018-04-10T08:08:45.078Z,16.23
2018-04-10T08:09:44.894Z,16.33
2018-04-10T08:10:44.837Z,16.42
2018-04-10T08:11:44.748Z,16.42
2018-04-10T08:12:44.695Z,16.65
2018-04-10T08:13:44.602Z,16.74
2018-04-10T08:14:44.609Z,16.73
2018-04-10T08:15:44.459Z,16.89
2018-04-10T08:16:44.413Z,16.99
2018-04-10T08:17:44.314Z,17.02
2018-04-10T08:18:44.326Z,17.13
2018-04-10T08:19:44.167Z,17.13
2018-04-10T08:20:44.135Z,16.99
2018-04-10T08:21:44.025Z,16.82
2018-04-10T08:22:44.044Z,16.84
2018-04-10T08:23:43.875Z,16.74
2018-04-10T08:24:43.853Z,16.70
2018-04-10T08:25:43.730Z,16.57
2018-04-10T08:26:43.762Z,16.53
2018-04-10T08:27:43.591Z,16.56
2018-04-10T08:28:43.569Z,16.52
2018-04-10T08:29:43.441Z,16.60
2018-04-10T08:30:43.484Z,16.52
2018-04-10T08:31:43.298Z,16.65
2018-04-10T08:32:43.288Z,16.56
2018-04-10T08:33:43.154Z,16.63
2018-04-10T08:34:43.106Z,16.65
2018-04-10T08:35:43.011Z,16.85
2018-04-10T08:36:43.012Z,16.73
2018-04-10T08:37:42.870Z,16.88
2018-04-10T08:38:42.821Z,17.00
2018-04-10T08:39:42.723Z,17.07
2018-04-10T08:40:42.728Z,17.14
2018-04-10T08:41:42.577Z,17.20
2018-04-10T08:42:42.538Z,17.18
2018-04-10T08:43:42.437Z,17.20
2018-04-10T08:44:42.447Z,17.15
2018-04-10T08:45:42.288Z,17.32
2018-04-10T08:46:42.257Z,17.20
2018-04-10T08:47:42.148Z,17.28
2018-04-10T08:48:42.170Z,17.18
2018-04-10T08:49:42.007Z,17.39
2018-04-10T08:50:41.988Z,17.29
2018-04-10T08:51:41.859Z,17.29
2018-04-10T08:52:41.888Z,17.32
2018-04-10T08:53:41.722Z,17.20
2018-04-10T08:54:41.695Z,17.21
2018-04-10T08:55:41.576Z,17.20
2018-04-10T08:56:41.607Z,17.17
2018-04-10T08:57:41.436Z,17.20
2018-04-10T08:58:41.409Z,17.25
2018-04-10T08:59:41.292Z,17.28
2018-04-10T09:00:41.326Z,17.17
2018-04-10T09:01:41.151Z,17.30
2018-04-10T09:02:41.137Z,17.43
2018-04-10T09:03:41.012Z,17.38
2018-04-10T09:04:41.056Z,17.48
2018-04-10T09:05:40.865Z,17.55
2018-04-10T09:06:40.854Z,17.53
2018-04-10T09:07:40.724Z,17.57
2018-04-10T09:08:40.766Z,17.50
2018-04-10T09:09:40.580Z,17.48
2018-04-10T09:10:40.529Z,17.39
2018-04-10T09:11:40.442Z,17.48
2018-04-10T09:12:40.486Z,17.43
2018-04-10T09:13:40.298Z,17.43
2018-04-10T09:14:40.298Z,17.26
2018-04-10T09:15:40.155Z,17.38
2018-04-10T09:16:40.102Z,17.50
2018-04-10T09:17:40.022Z,17.63
2018-04-10T09:18:40.013Z,17.58
2018-04-10T09:19:39.876Z,17.63
2018-04-10T09:20:39.821Z,17.69
2018-04-10T09:21:39.734Z,17.64
2018-04-10T09:22:39.737Z,17.71
2018-04-10T09:23:39.590Z,17.84
2018-04-10T09:24:39.526Z,17.79
2018-04-10T09:25:39.450Z,17.77
2018-04-10T09:26:39.451Z,17.88
2018-04-10T09:27:39.303Z,17.94
2018-04-10T09:28:39.261Z,17.94
2018-04-10T09:29:39.169Z,17.95
2018-04-10T09:30:39.177Z,18.06
2018-04-10T09:31:39.028Z,18.07
2018-04-10T09:32:38.980Z,18.25
2018-04-10T09:33:38.881Z,18.16
2018-04-10T09:34:38.889Z,18.24
2018-04-10T09:35:38.743Z,18.28
2018-04-10T09:36:38.706Z,18.28
2018-04-10T09:37:38.601Z,18.27
2018-04-10T09:38:38.611Z,18.29
2018-04-10T09:39:38.459Z,18.31
2018-04-10T09:40:38.420Z,18.27
2018-04-10T09:41:38.327Z,18.31
2018-04-10T09:42:38.329Z,18.37
2018-04-10T09:43:38.187Z,18.46
2018-04-10T09:44:38.141Z,18.58
2018-04-10T09:45:38.045Z,18.61
2018-04-10T09:46:38.050Z,18.65
2018-04-10T09:47:37.899Z,18.65
2018-04-10T09:48:37.861Z,18.76
2018-04-10T09:49:37.764Z,18.94
2018-04-10T09:50:37.772Z,19.05
2018-04-10T09:51:37.625Z,19.17
2018-04-10T09:52:37.583Z,19.15
2018-04-10T09:53:37.483Z,19.21
2018-04-10T09:54:37.494Z,19.28
2018-04-10T09:55:37.342Z,19.32
2018-04-10T09:56:37.299Z,19.28
2018-04-10T09:57:37.204Z,19.28
2018-04-10T09:58:37.209Z,19.32
2018-04-10T09:59:37.073Z,19.24
2018-04-10T10:00:37.018Z,19.35
2018-04-10T10:01:36.926Z,19.31
2018-04-10T10:02:36.931Z,19.28
2018-04-10T10:03:36.787Z,19.20
2018-04-10T10:04:36.737Z,19.02
2018-04-10T10:05:36.651Z,18.90
2018-04-10T10:06:36.648Z,18.89
2018-04-10T10:07:36.518Z,18.82
2018-04-10T10:08:36.459Z,18.80
2018-04-10T10:09:36.374Z,18.80
2018-04-10T10:10:36.370Z,18.77
2018-04-10T10:11:36.233Z,18.94
2018-04-10T10:12:36.280Z,19.02
2018-04-10T10:13:36.089Z,19.02
2018-04-10T10:14:36.089Z,19.23
2018-04-10T10:15:35.958Z,19.18
2018-04-10T10:16:35.997Z,19.25
2018-04-10T10:17:35.815Z,19.31
2018-04-10T10:18:35.806Z,19.50
2018-04-10T10:19:35.678Z,19.63
2018-04-10T10:20:35.717Z,19.68
2018-04-10T10:21:35.538Z,19.76
2018-04-10T10:22:35.523Z,19.80
2018-04-10T10:23:35.401Z,19.93
2018-04-10T10:24:35.435Z,19.97
2018-04-10T10:25:35.265Z,20.12
2018-04-10T10:26:35.244Z,20.10
2018-04-10T10:27:35.126Z,20.27
2018-04-10T10:28:35.156Z,20.24
2018-04-10T10:29:34.998Z,20.31
2018-04-10T10:30:34.963Z,20.30
2018-04-10T10:31:34.852Z,20.35
2018-04-10T10:32:34.875Z,20.16
2018-04-10T10:33:34.714Z,20.12
2018-04-10T10:34:34.682Z,20.12
2018-04-10T10:35:34.581Z,20.23
2018-04-10T10:36:34.594Z,20.20
2018-04-10T10:37:34.451Z,20.30
2018-04-10T10:38:34.401Z,20.28
2018-04-10T10:39:34.304Z,20.40
2018-04-10T10:40:34.314Z,20.51
2018-04-10T10:41:34.172Z,20.54
2018-04-10T10:42:34.121Z,20.66
2018-04-10T10:43:34.030Z,20.74
2018-04-10T10:44:34.033Z,20.79
2018-04-10T10:45:33.900Z,20.76
2018-04-10T10:46:33.943Z,20.87
2018-04-10T10:47:33.758Z,20.87
2018-04-10T10:48:33.750Z,20.79
2018-04-10T10:49:33.625Z,20.84
2018-04-10T10:50:33.662Z,20.74
2018-04-10T10:51:33.484Z,20.93
2018-04-10T10:52:33.472Z,20.86
2018-04-10T10:53:33.351Z,20.93
2018-04-10T10:54:33.381Z,21.01
2018-04-10T10:55:33.211Z,21.09
2018-04-10T10:56:33.192Z,21.23
2018-04-10T10:57:33.079Z,21.14
2018-04-10T10:58:33.107Z,21.33
2018-04-10T10:59:32.943Z,21.38
2018-04-10T11:00:32.911Z,21.35
2018-04-10T11:01:32.810Z,21.33
2018-04-10T11:02:32.823Z,21.33
2018-04-10T11:03:32.684Z,21.35
2018-04-10T11:04:32.631Z,21.30
2018-04-10T11:05:32.532Z,21.38
2018-04-10T11:06:32.556Z,21.39
2018-04-10T11:07:32.402Z,21.42
2018-04-10T11:08:32.456Z,21.42
2018-04-10T11:09:32.277Z,21.51
2018-04-10T11:10:32.261Z,21.57
2018-04-10T11:11:32.126Z,21.60
2018-04-10T11:12:32.174Z,21.53
2018-04-10T11:13:31.991Z,21.54
2018-04-10T11:14:31.983Z,21.51
2018-04-10T11:15:31.855Z,21.45
2018-04-10T11:16:31.893Z,21.33
2018-04-10T11:17:31.722Z,21.27
2018-04-10T11:18:31.706Z,21.21
2018-04-10T11:19:31.582Z,21.09
2018-04-10T11:20:31.620Z,21.19
2018-04-10T11:21:31.454Z,21.41
2018-04-10T11:22:31.421Z,21.56
2018-04-10T11:23:31.316Z,21.64
2018-04-10T11:24:31.334Z,21.82
2018-04-10T11:25:31.180Z,22.04
2018-04-10T11:26:31.146Z,22.13
2018-04-10T11:27:31.047Z,22.24
2018-04-10T11:28:30.987Z,22.39
2018-04-10T11:29:30.912Z,22.53
2018-04-10T11:30:30.967Z,22.54
2018-04-10T11:31:30.779Z,22.60
2018-04-10T11:32:30.782Z,22.60
2018-04-10T11:33:30.646Z,22.71
2018-04-10T11:34:30.687Z,22.74
2018-04-10T11:35:30.508Z,22.79
2018-04-10T11:36:30.496Z,22.74
2018-04-10T11:37:30.380Z,22.71
2018-04-10T11:38:30.410Z,22.59
2018-04-10T11:39:30.246Z,22.54
2018-04-10T11:40:31.241Z,22.50
2018-04-10T11:41:30.110Z,22.44
2018-04-10T11:42:30.127Z,22.32
2018-04-10T11:43:29.980Z,22.28
2018-04-10T11:44:29.943Z,22.15
2018-04-10T11:45:29.845Z,22.07
2018-04-10T11:46:29.851Z,21.92
2018-04-10T11:47:29.709Z,21.79
2018-04-10T11:48:29.759Z,21.75
2018-04-10T11:49:29.576Z,21.70
2018-04-10T11:50:29.569Z,21.72
2018-04-10T11:51:29.439Z,21.78
2018-04-10T11:52:29.480Z,21.82
2018-04-10T11:53:29.311Z,21.82
2018-04-10T11:54:30.315Z,21.94
2018-04-10T11:55:29.174Z,21.92
2018-04-10T11:56:29.204Z,21.91
2018-04-10T11:57:29.040Z,21.94
2018-04-10T11:58:29.014Z,22.04
2018-04-10T11:59:28.909Z,22.07
2018-04-10T12:00:28.922Z,22.00
2018-04-10T12:01:28.774Z,22.05
2018-04-10T12:02:28.730Z,21.97
2018-04-10T12:03:28.638Z,22.05
2018-04-10T12:04:28.645Z,22.02
2018-04-10T12:05:28.508Z,22.00
2018-04-10T12:06:28.449Z,22.04
2018-04-10T12:07:28.368Z,21.94
2018-04-10T12:08:28.364Z,21.97
2018-04-10T12:09:28.235Z,21.94
2018-04-10T12:10:28.275Z,21.94
2018-04-10T12:11:28.103Z,21.79
2018-04-10T12:12:28.083Z,21.70
2018-04-10T12:13:27.982Z,21.69
2018-04-10T12:14:27.996Z,21.75
2018-04-10T12:15:27.838Z,21.69
2018-04-10T12:16:27.801Z,21.70
2018-04-10T12:17:27.699Z,21.70
2018-04-10T12:18:27.716Z,21.64
2018-04-10T12:19:27.563Z,21.67
2018-04-10T12:20:27.526Z,21.66
2018-04-10T12:21:27.434Z,21.63
2018-04-10T12:22:27.435Z,21.66
2018-04-10T12:23:27.301Z,21.56
2018-04-10T12:24:27.351Z,21.51
2018-04-10T12:25:27.158Z,21.49
2018-04-10T12:26:27.157Z,21.42
2018-04-10T12:27:27.028Z,21.42
2018-04-10T12:28:27.068Z,21.30
2018-04-10T12:29:26.891Z,21.27
2018-04-10T12:30:26.880Z,21.20
2018-04-10T12:31:26.756Z,21.11
2018-04-10T12:32:26.789Z,21.06
2018-04-10T12:33:26.619Z,21.06
2018-04-10T12:34:26.597Z,21.09
2018-04-10T12:35:26.491Z,21.04
2018-04-10T12:36:26.511Z,20.94
2018-04-10T12:37:26.353Z,20.90
2018-04-10T12:38:26.316Z,20.76
2018-04-10T12:39:26.223Z,20.75
2018-04-10T12:40:26.225Z,20.74
2018-04-10T12:41:26.085Z,20.75
2018-04-10T12:42:26.037Z,20.75
2018-04-10T12:43:25.946Z,20.66
2018-04-10T12:44:25.950Z,20.69
2018-04-10T12:45:25.811Z,20.76
2018-04-10T12:46:25.861Z,20.74
2018-04-10T12:47:25.675Z,20.68
2018-04-10T12:48:25.668Z,20.65
2018-04-10T12:49:25.550Z,20.84
2018-04-10T12:50:25.577Z,20.80
2018-04-10T12:51:25.406Z,20.74
2018-04-10T12:52:25.388Z,20.74
2018-04-10T12:53:25.267Z,20.79
2018-04-10T12:54:25.297Z,20.89
2018-04-10T12:55:25.133Z,20.87
2018-04-10T12:56:25.110Z,20.89
2018-04-10T12:57:25.003Z,20.93
2018-04-10T12:58:25.022Z,20.90
2018-04-10T12:59:24.860Z,20.79
2018-04-10T13:00:24.830Z,20.87
2018-04-10T13:01:24.725Z,20.76
2018-04-10T13:02:25.765Z,20.83
2018-04-10T13:03:24.588Z,20.80
2018-04-10T13:04:24.553Z,20.75
2018-04-10T13:05:24.453Z,20.83
2018-04-10T13:06:24.431Z,20.83
2018-04-10T13:07:24.317Z,20.83
2018-04-10T13:08:24.344Z,20.71
2018-04-10T13:09:24.188Z,20.71
2018-04-10T13:10:24.155Z,20.71
2018-04-10T13:11:24.049Z,20.66
2018-04-10T13:12:24.063Z,20.62
2018-04-10T13:13:23.914Z,20.65
2018-04-10T13:14:23.871Z,20.64
2018-04-10T13:15:23.774Z,20.62
2018-04-10T13:16:23.784Z,20.66
2018-04-10T13:17:23.646Z,20.59
2018-04-10T13:18:23.592Z,20.59
2018-04-10T13:19:23.507Z,20.56
2018-04-10T13:20:23.503Z,20.56
2018-04-10T13:21:23.373Z,20.56
2018-04-10T13:22:23.412Z,20.57
2018-04-10T13:23:23.229Z,20.54
2018-04-10T13:24:23.219Z,20.51
2018-04-10T13:25:23.093Z,20.59
2018-04-10T13:26:23.128Z,20.65
2018-04-10T13:27:22.958Z,20.53
2018-04-10T13:28:22.940Z,20.59
2018-04-10T13:29:22.816Z,20.57
2018-04-10T13:30:22.849Z,20.50
2018-04-10T13:31:22.679Z,20.54
2018-04-10T13:32:22.656Z,20.40
2018-04-10T13:33:22.547Z,20.51
2018-04-10T13:34:22.478Z,20.50
2018-04-10T13:35:22.476Z,20.51
2018-04-10T13:36:22.336Z,20.42
2018-04-10T13:37:22.389Z,20.42
2018-04-10T13:38:22.206Z,20.42
2018-04-10T13:39:22.196Z,20.38
2018-04-10T13:40:22.069Z,20.42
2018-04-10T13:41:22.112Z,20.40
2018-04-10T13:42:21.933Z,20.38
2018-04-10T13:43:21.912Z,20.43
2018-04-10T13:44:21.793Z,20.40